Stations météo

Publicité
Chatillon/Seine, France (7276): Température de l'air & dewpoint: 10.01.2018 08:00:00 - 16.01.2018 08:00:00 (CET)Chatillon/Seine, France (7276): Vitesse du vent & gusts: 10.01.2018 08:00:00 - 16.01.2018 08:00:00 (CET)Chatillon/Seine, France (7276): Direction du vent: 10.01.2018 08:00:00 - 16.01.2018 08:00:00 (CET)Chatillon/Seine, France (7276): Ensoleillement: 10.01.2018 08:00:00 - 16.01.2018 08:00:00 (CET)Chatillon/Seine, France (7276): Quantités de précipitations: 10.01.2018 08:00:00 - 16.01.2018 08:00:00 (CET)
Date & Time tt [°C] td [°C] ff [km/h] ff [knt] fx [km/h] fx [knt] dd sd [min] rr [mm]
16.01.2018 08:00:00 8,3 5,9 31 17 59 32 SW 0 0,0
16.01.2018 07:00:00 8,5 6,3 35 19 61 33 WSW 0 -
16.01.2018 06:00:00 8,4 6,5 34 18 54 29 SW 0 0,0
16.01.2018 05:00:00 8,6 6,4 34 18 57 31 SW 0 0,4
16.01.2018 04:00:00 8,5 6,8 34 18 48 26 SW 0 0,8
16.01.2018 03:00:00 8,5 6,8 31 17 50 27 SW 0 0,2
16.01.2018 02:00:00 8,2 7,0 28 15 42 23 SW 0 0,0
16.01.2018 01:00:00 7,9 6,5 28 15 59 32 SW 0 -
16.01.2018 00:00:00 7,7 6,2 35 19 61 33 SW 0 0,0
15.01.2018 23:00:00 7,3 6,2 35 19 65 35 SSW 0 0,2
15.01.2018 22:00:00 7,1 5,6 41 22 65 35 SW 0 0,2
15.01.2018 21:00:00 6,8 5,0 41 22 72 39 SSW 0 0,0
15.01.2018 20:00:00 6,3 4,5 42 23 67 36 SSW 0 0,0
15.01.2018 19:00:00 5,7 4,0 39 21 61 33 SSW 0 -
15.01.2018 18:00:00 6,0 4,2 35 19 57 31 SSW 0 2,0
15.01.2018 17:00:00 6,1 3,9 37 20 63 34 S 0 1,0
15.01.2018 16:00:00 6,7 4,0 29 16 55 30 SSW 0 0,2
15.01.2018 15:00:00 7,3 3,0 34 18 55 30 SSW 0 0,0
15.01.2018 14:00:00 7,4 2,5 29 16 44 24 SSW 0 0,0
15.01.2018 13:00:00 7,2 2,7 22 12 42 23 SSW 0 -
15.01.2018 12:00:00 6,8 2,9 22 12 39 21 SSW 0 0,0
15.01.2018 11:00:00 6,5 2,4 24 13 35 19 SSW 0 0,0
15.01.2018 10:00:00 6,3 2,0 21 11 34 18 SSW 6 0,0
15.01.2018 09:00:00 5,5 2,7 16 9 24 13 SSW 6 0,0
15.01.2018 08:00:00 4,9 2,3 15 8 28 15 SSW 0 0,0
15.01.2018 07:00:00 5,6 3,1 16 9 26 14 S 0 -
15.01.2018 06:00:00 5,3 3,1 15 8 21 11 SSW 0 0,0
15.01.2018 05:00:00 4,1 2,3 9 5 13 7 S 0 0,0
15.01.2018 04:00:00 2,9 1,9 0 0 5 3 N 0 0,0
15.01.2018 03:00:00 2,6 1,1 2 1 4 2 NNE 0 0,0
15.01.2018 02:00:00 2,7 1,4 5 3 9 5 SW 0 0,0
15.01.2018 01:00:00 2,8 1,3 9 5 13 7 S 0 -
15.01.2018 00:00:00 1,9 0,7 13 7 15 8 S 0 0,0
14.01.2018 23:00:00 2,1 0,6 2 1 9 5 S 0 0,0
14.01.2018 22:00:00 2,4 0,6 4 2 8 4 SSE 0 0,0
14.01.2018 21:00:00 2,7 1,1 4 2 11 6 SSE 0 0,0
14.01.2018 20:00:00 3,0 1,0 5 3 8 4 SSE 0 0,0
14.01.2018 19:00:00 3,8 1,8 5 3 8 4 SSE 0 -
14.01.2018 18:00:00 4,3 1,2 5 3 11 6 ESE 0 0,0
14.01.2018 17:00:00 7,5 3,2 11 6 16 9 SSE 48 0,0
14.01.2018 16:00:00 9,4 3,6 11 6 18 10 S 54 0,0
14.01.2018 15:00:00 10,5 3,3 11 6 18 10 SSW 60 0,0
14.01.2018 14:00:00 10,0 4,4 11 6 22 12 SSE 60 0,0
14.01.2018 13:00:00 8,9 3,1 15 8 22 12 S 60 -
14.01.2018 12:00:00 8,7 3,1 11 6 18 10 SSE 60 0,0
14.01.2018 11:00:00 5,5 3,0 0 0 5 3 N 54 0,0
14.01.2018 10:00:00 1,9 1,3 4 2 5 3 ENE 30 0,0
14.01.2018 09:00:00 0,8 0,4 0 0 4 2 N 0 0,0
14.01.2018 08:00:00 0,2 -0,5 2 1 5 3 E 0 0,0
14.01.2018 07:00:00 0,5 -0,2 0 0 4 2 N 0 -
14.01.2018 06:00:00 0,3 -0,7 2 1 5 3 ESE 0 0,0
14.01.2018 05:00:00 0,1 -0,9 4 2 11 6 SE 0 0,0
14.01.2018 04:00:00 0,9 -0,1 0 0 13 7 N 0 0,0
14.01.2018 03:00:00 1,6 -0,2 9 5 22 12 SE 0 0,0
14.01.2018 02:00:00 2,2 0,4 16 9 26 14 SE 0 0,0
14.01.2018 01:00:00 2,6 0,5 16 9 24 13 SE 0 -
14.01.2018 00:00:00 2,4 0,5 11 6 18 10 SE 0 0,0
13.01.2018 23:00:00 2,6 0,3 9 5 18 10 SSE 0 0,0
13.01.2018 22:00:00 2,8 1,0 9 5 18 10 SSE 0 0,0
13.01.2018 21:00:00 2,6 0,8 13 7 21 11 SE 0 0,0
13.01.2018 20:00:00 0,5 -1,0 5 3 9 5 ESE 0 0,0
13.01.2018 19:00:00 2,0 0,2 5 3 9 5 E 0 -
13.01.2018 18:00:00 3,6 0,5 9 5 18 10 E 0 0,0
13.01.2018 17:00:00 4,9 1,0 11 6 22 12 E 48 0,0
13.01.2018 16:00:00 5,9 1,4 13 7 24 13 E 24 0,0
13.01.2018 15:00:00 6,6 1,7 16 9 28 15 E 54 0,0
13.01.2018 14:00:00 6,8 1,5 16 9 26 14 E 60 0,0
13.01.2018 13:00:00 5,8 2,3 16 9 26 14 E 60 -
13.01.2018 12:00:00 3,4 3,4 15 8 22 12 E 54 0,0
13.01.2018 11:00:00 1,2 1,1 8 4 16 9 E 6 0,0
13.01.2018 10:00:00 0,9 0,9 9 5 16 9 E 0 0,0
13.01.2018 09:00:00 0,5 0,4 5 3 11 6 E 0 0,0
13.01.2018 08:00:00 0,1 0,1 8 4 16 9 NE 0 0,0
13.01.2018 07:00:00 -0,4 -0,5 8 4 13 7 NNE 0 -
13.01.2018 06:00:00 -0,9 -1,2 4 2 13 7 NE 0 0,0
13.01.2018 05:00:00 -0,4 -0,5 9 5 15 8 E 0 0,0
13.01.2018 04:00:00 0,9 0,8 5 3 8 4 ESE 0 0,0
13.01.2018 03:00:00 1,6 1,5 2 1 11 6 E 0 0,0
13.01.2018 02:00:00 2,0 1,9 8 4 9 5 E 0 0,0
13.01.2018 01:00:00 2,5 2,4 4 2 8 4 NE 0 -
13.01.2018 00:00:00 2,4 2,3 4 2 11 6 ENE 0 0,0
12.01.2018 23:00:00 3,2 3,1 2 1 9 5 NE 0 0,0
12.01.2018 22:00:00 3,1 2,8 5 3 11 6 ENE 0 0,0
12.01.2018 21:00:00 2,4 2,1 0 0 8 4 N 0 0,0
12.01.2018 20:00:00 2,0 1,6 4 2 8 4 W 0 0,0
12.01.2018 19:00:00 2,6 2,0 0 0 4 2 N 0 -
12.01.2018 18:00:00 4,2 3,0 0 0 5 3 N 0 0,0
12.01.2018 17:00:00 5,6 3,9 4 2 8 4 N 42 0,0
12.01.2018 16:00:00 6,5 4,8 5 3 11 6 N 0 0,0
12.01.2018 15:00:00 6,5 5,1 8 4 13 7 N 0 0,0
12.01.2018 14:00:00 6,4 5,0 8 4 13 7 NNE 0 0,0
12.01.2018 13:00:00 6,3 5,4 9 5 13 7 NNE 0 -
12.01.2018 12:00:00 5,9 5,2 5 3 13 7 N 0 0,0
12.01.2018 11:00:00 5,6 5,2 8 4 13 7 N 0 0,0
12.01.2018 10:00:00 5,3 5,0 4 2 13 7 N 0 0,0
12.01.2018 09:00:00 5,3 4,9 4 2 11 6 NW 0 0,0
12.01.2018 08:00:00 5,2 4,9 5 3 9 5 N 0 0,0
12.01.2018 07:00:00 5,3 4,9 4 2 11 6 NNW 0 -
12.01.2018 06:00:00 5,4 5,0 4 2 11 6 N 0 0,0
12.01.2018 05:00:00 5,4 5,0 5 3 11 6 NNW 0 0,0
12.01.2018 04:00:00 5,4 4,8 8 4 9 5 NE 0 0,0
12.01.2018 03:00:00 5,4 5,0 4 2 15 8 NNE 0 0,0
12.01.2018 02:00:00 5,5 5,1 9 5 15 8 NNE 0 0,0
12.01.2018 01:00:00 5,4 5,1 5 3 9 5 NNE 0 -
12.01.2018 00:00:00 5,3 5,0 0 0 4 2 N 0 0,0
11.01.2018 23:00:00 5,3 4,9 4 2 8 4 NW 0 0,0
11.01.2018 22:00:00 5,2 4,8 4 2 5 3 NNW 0 0,0
11.01.2018 21:00:00 5,6 5,0 4 2 5 3 NW 0 0,0
11.01.2018 20:00:00 6,0 5,3 2 1 15 8 NNW 0 0,0
11.01.2018 19:00:00 6,2 5,3 8 4 13 7 NNW 0 -
11.01.2018 18:00:00 6,3 5,3 4 2 8 4 WNW 0 0,0
11.01.2018 17:00:00 6,6 5,2 4 2 4 2 WNW 12 0,0
11.01.2018 16:00:00 6,5 5,1 0 0 5 3 N 0 0,0
11.01.2018 15:00:00 6,4 5,2 4 2 8 4 WNW 0 0,0
11.01.2018 14:00:00 6,4 5,2 0 0 5 3 N 0 0,0
11.01.2018 13:00:00 5,9 5,2 0 0 4 2 N 0 -
11.01.2018 12:00:00 5,3 5,2 4 2 5 3 W 0 0,0
11.01.2018 11:00:00 4,4 4,1 0 0 4 2 N 0 0,0
11.01.2018 10:00:00 3,5 3,5 2 1 4 2 NW 0 0,0
11.01.2018 09:00:00 2,3 2,0 4 2 5 3 ESE 0 0,0
11.01.2018 08:00:00 1,8 1,5 0 0 5 3 N 0 0,0
11.01.2018 07:00:00 1,2 0,8 4 2 9 5 S 0 -
11.01.2018 06:00:00 2,1 1,7 4 2 9 5 SE 0 0,0
11.01.2018 05:00:00 3,0 2,3 4 2 8 4 SSE 0 0,0
11.01.2018 04:00:00 4,7 3,8 5 3 9 5 SSE 0 0,0
11.01.2018 03:00:00 4,9 4,2 8 4 9 5 S 0 0,0
11.01.2018 02:00:00 5,3 4,3 9 5 16 9 S 0 0,0
11.01.2018 01:00:00 6,0 4,3 13 7 21 11 SSW 0 -
11.01.2018 00:00:00 5,7 4,2 15 8 22 12 S 0 0,0
10.01.2018 23:00:00 6,0 4,5 9 5 21 11 S 0 0,0
10.01.2018 22:00:00 6,8 4,6 16 9 24 13 SSW 0 0,0
10.01.2018 21:00:00 6,5 4,8 13 7 22 12 S 0 0,0
10.01.2018 20:00:00 6,8 5,4 16 9 29 16 S 0 0,0
10.01.2018 19:00:00 6,6 5,1 15 8 24 13 S 0 -
10.01.2018 18:00:00 6,9 5,8 15 8 18 10 S 0 0,0
10.01.2018 17:00:00 7,1 5,9 15 8 22 12 S 0 0,0
10.01.2018 16:00:00 7,5 6,3 11 6 18 10 S 0 0,0
10.01.2018 15:00:00 7,1 6,4 9 5 16 9 S 0 0,0
10.01.2018 14:00:00 6,6 6,0 5 3 16 9 SSW 0 0,0
10.01.2018 13:00:00 6,4 5,7 13 7 26 14 SSW 0 -
10.01.2018 12:00:00 6,0 4,8 16 9 26 14 SSW 0 0,0
10.01.2018 11:00:00 5,9 4,4 16 9 24 13 S 0 0,0
10.01.2018 10:00:00 5,7 4,0 15 8 29 16 S 0 0,0
10.01.2018 09:00:00 5,5 2,8 16 9 24 13 S 0 0,0
10.01.2018 08:00:00 4,4 2,3 4 2 21 11 SE 0 0,0

tt = Température de l'air
td = dewpoint
ff = Vitesse du vent
fx = gusts
dd = Direction du vent
sd = Ensoleillement
rr = Quantités de précipitations

stations d'obs. à proximité